< < Back
Terminal Aerodrome Forecast


Current Version              Previous Versions:   1  2  3  4  5  6  7  8  9  

Terminal Aerodrome Forecast

323
FTUS42 KTAE 041700
TAFVLD
TAF
KVLD 041725Z 0418/0518 21010G23KT P6SM SCT040
     FM050100 18004KT 5SM BR BKN015
     FM050700 VRB03KT 1/2SM FG OVC003
     FM051500 20007KT P6SM OVC015=

Latest METAR

075
SAUS70 KWBC 051600 RRE
MTRVLD
METAR KVLD 051553Z 23007KT 180V270 10SM BKN019 OVC025 23/18 A3009 RMK
AO2 SLP195 T02330178


USA.gov is the U.S. government's official web portal to all federal, state and local government web resources and services.